sensor_id;sensor_type;location;lat;lon;timestamp;temperature;humidity
23544;DHT22;11950;51.230;4.012;2023-06-10T00:01:59;23.60;99.90
23544;DHT22;11950;51.230;4.012;2023-06-10T00:04:26;23.70;99.90
23544;DHT22;11950;51.230;4.012;2023-06-10T00:06:53;23.70;99.90
23544;DHT22;11950;51.230;4.012;2023-06-10T00:09:19;23.70;99.90
23544;DHT22;11950;51.230;4.012;2023-06-10T00:11:47;23.70;99.90
23544;DHT22;11950;51.230;4.012;2023-06-10T00:14:14;23.70;99.90
23544;DHT22;11950;51.230;4.012;2023-06-10T00:16:40;23.60;99.90
23544;DHT22;11950;51.230;4.012;2023-06-10T00:19:06;23.60;99.90
23544;DHT22;11950;51.230;4.012;2023-06-10T00:21:34;23.60;99.90
23544;DHT22;11950;51.230;4.012;2023-06-10T00:24:04;23.50;99.90
23544;DHT22;11950;51.230;4.012;2023-06-10T00:26:32;23.50;99.90
23544;DHT22;11950;51.230;4.012;2023-06-10T00:28:59;23.40;99.90
23544;DHT22;11950;51.230;4.012;2023-06-10T00:31:25;23.40;99.90
23544;DHT22;11950;51.230;4.012;2023-06-10T00:33:52;23.30;99.90
23544;DHT22;11950;51.230;4.012;2023-06-10T00:36:19;23.30;99.90
23544;DHT22;11950;51.230;4.012;2023-06-10T00:38:45;23.20;99.90
23544;DHT22;11950;51.230;4.012;2023-06-10T00:41:11;23.10;99.90
23544;DHT22;11950;51.230;4.012;2023-06-10T00:43:37;23.10;99.90
23544;DHT22;11950;51.230;4.012;2023-06-10T00:46:04;23.20;99.90
23544;DHT22;11950;51.230;4.012;2023-06-10T00:48:30;23.20;99.90
23544;DHT22;11950;51.230;4.012;2023-06-10T00:50:57;23.20;99.90
23544;DHT22;11950;51.230;4.012;2023-06-10T00:53:24;23.20;99.90
23544;DHT22;11950;51.230;4.012;2023-06-10T00:55:51;23.20;99.90
23544;DHT22;11950;51.230;4.012;2023-06-10T00:58:17;23.20;99.90
23544;DHT22;11950;51.230;4.012;2023-06-10T01:00:44;23.20;99.90
23544;DHT22;11950;51.230;4.012;2023-06-10T01:03:11;23.10;99.90
23544;DHT22;11950;51.230;4.012;2023-06-10T01:05:38;23.10;99.90
23544;DHT22;11950;51.230;4.012;2023-06-10T01:08:35;23.00;99.90
23544;DHT22;11950;51.230;4.012;2023-06-10T01:11:08;23.00;99.90
23544;DHT22;11950;51.230;4.012;2023-06-10T01:13:41;23.00;99.90
23544;DHT22;11950;51.230;4.012;2023-06-10T01:16:09;23.00;99.90
23544;DHT22;11950;51.230;4.012;2023-06-10T01:18:40;23.00;99.90
23544;DHT22;11950;51.230;4.012;2023-06-10T01:21:08;22.90;99.90
23544;DHT22;11950;51.230;4.012;2023-06-10T01:23:35;22.90;99.90
23544;DHT22;11950;51.230;4.012;2023-06-10T01:26:09;22.80;99.90
23544;DHT22;11950;51.230;4.012;2023-06-10T01:28:54;22.80;99.90
23544;DHT22;11950;51.230;4.012;2023-06-10T01:34:12;22.70;99.90
23544;DHT22;11950;51.230;4.012;2023-06-10T01:36:41;22.70;99.90
23544;DHT22;11950;51.230;4.012;2023-06-10T01:39:10;22.60;99.90
23544;DHT22;11950;51.230;4.012;2023-06-10T01:41:37;22.60;99.90
23544;DHT22;11950;51.230;4.012;2023-06-10T01:44:04;22.50;99.90
23544;DHT22;11950;51.230;4.012;2023-06-10T01:46:30;22.50;99.90
23544;DHT22;11950;51.230;4.012;2023-06-10T01:48:56;22.40;99.90
23544;DHT22;11950;51.230;4.012;2023-06-10T01:51:23;22.40;99.90
23544;DHT22;11950;51.230;4.012;2023-06-10T01:53:49;22.40;99.90
23544;DHT22;11950;51.230;4.012;2023-06-10T01:56:15;22.40;99.90
23544;DHT22;11950;51.230;4.012;2023-06-10T01:58:46;22.30;99.90
23544;DHT22;11950;51.230;4.012;2023-06-10T02:01:13;22.30;99.90
23544;DHT22;11950;51.230;4.012;2023-06-10T02:03:39;22.30;99.90
23544;DHT22;11950;51.230;4.012;2023-06-10T02:06:05;22.30;99.90
23544;DHT22;11950;51.230;4.012;2023-06-10T02:08:32;22.20;99.90
23544;DHT22;11950;51.230;4.012;2023-06-10T02:11:00;22.20;99.90
23544;DHT22;11950;51.230;4.012;2023-06-10T02:13:29;22.20;99.90
23544;DHT22;11950;51.230;4.012;2023-06-10T02:15:55;22.20;99.90
23544;DHT22;11950;51.230;4.012;2023-06-10T02:18:21;22.10;99.90
23544;DHT22;11950;51.230;4.012;2023-06-10T02:20:48;22.10;99.90
23544;DHT22;11950;51.230;4.012;2023-06-10T02:23:14;22.00;99.90
23544;DHT22;11950;51.230;4.012;2023-06-10T02:25:41;22.00;99.90
23544;DHT22;11950;51.230;4.012;2023-06-10T02:28:07;21.90;99.90
23544;DHT22;11950;51.230;4.012;2023-06-10T02:30:33;21.90;99.90
23544;DHT22;11950;51.230;4.012;2023-06-10T02:33:00;21.80;99.90
23544;DHT22;11950;51.230;4.012;2023-06-10T02:35:28;21.80;99.90
23544;DHT22;11950;51.230;4.012;2023-06-10T02:37:55;21.80;99.90
23544;DHT22;11950;51.230;4.012;2023-06-10T02:40:22;21.80;99.90
23544;DHT22;11950;51.230;4.012;2023-06-10T02:42:48;21.70;99.90
23544;DHT22;11950;51.230;4.012;2023-06-10T02:45:15;21.80;99.90
23544;DHT22;11950;51.230;4.012;2023-06-10T02:47:43;21.70;99.90
23544;DHT22;11950;51.230;4.012;2023-06-10T02:50:11;21.70;99.90
23544;DHT22;11950;51.230;4.012;2023-06-10T02:52:46;21.60;99.90
23544;DHT22;11950;51.230;4.012;2023-06-10T02:55:13;21.70;99.90
23544;DHT22;11950;51.230;4.012;2023-06-10T02:57:44;21.70;99.90
23544;DHT22;11950;51.230;4.012;2023-06-10T03:00:11;21.70;99.90
23544;DHT22;11950;51.230;4.012;2023-06-10T03:02:39;21.70;99.90
23544;DHT22;11950;51.230;4.012;2023-06-10T03:05:07;21.70;99.90
23544;DHT22;11950;51.230;4.012;2023-06-10T03:07:40;21.70;99.90
23544;DHT22;11950;51.230;4.012;2023-06-10T03:10:07;21.80;99.90
23544;DHT22;11950;51.230;4.012;2023-06-10T03:12:35;21.80;99.90
23544;DHT22;11950;51.230;4.012;2023-06-10T03:15:01;21.80;99.90
23544;DHT22;11950;51.230;4.012;2023-06-10T03:17:31;21.80;99.90
23544;DHT22;11950;51.230;4.012;2023-06-10T03:19:57;21.90;99.90
23544;DHT22;11950;51.230;4.012;2023-06-10T03:22:24;21.90;99.90
23544;DHT22;11950;51.230;4.012;2023-06-10T03:25:06;21.80;99.90
23544;DHT22;11950;51.230;4.012;2023-06-10T03:27:34;21.80;99.90
23544;DHT22;11950;51.230;4.012;2023-06-10T03:30:06;21.60;99.90
23544;DHT22;11950;51.230;4.012;2023-06-10T03:32:33;21.70;99.90
23544;DHT22;11950;51.230;4.012;2023-06-10T03:35:00;21.70;99.90
23544;DHT22;11950;51.230;4.012;2023-06-10T03:37:29;21.70;99.90
23544;DHT22;11950;51.230;4.012;2023-06-10T03:39:55;21.80;99.90
23544;DHT22;11950;51.230;4.012;2023-06-10T03:42:22;21.80;99.90
23544;DHT22;11950;51.230;4.012;2023-06-10T03:44:48;21.80;99.90
23544;DHT22;11950;51.230;4.012;2023-06-10T03:47:14;21.80;99.90
23544;DHT22;11950;51.230;4.012;2023-06-10T03:49:43;21.80;99.90
23544;DHT22;11950;51.230;4.012;2023-06-10T03:52:10;21.80;99.90
23544;DHT22;11950;51.230;4.012;2023-06-10T03:54:37;21.70;99.90
23544;DHT22;11950;51.230;4.012;2023-06-10T03:57:03;21.70;99.90
23544;DHT22;11950;51.230;4.012;2023-06-10T03:59:31;21.70;99.90
23544;DHT22;11950;51.230;4.012;2023-06-10T04:01:58;21.60;99.90
23544;DHT22;11950;51.230;4.012;2023-06-10T04:04:24;21.60;99.90
23544;DHT22;11950;51.230;4.012;2023-06-10T04:06:51;21.60;99.90
23544;DHT22;11950;51.230;4.012;2023-06-10T04:09:17;21.60;99.90
23544;DHT22;11950;51.230;4.012;2023-06-10T04:11:44;21.60;99.90
23544;DHT22;11950;51.230;4.012;2023-06-10T04:14:10;21.60;99.90
23544;DHT22;11950;51.230;4.012;2023-06-10T04:16:38;21.60;99.90
23544;DHT22;11950;51.230;4.012;2023-06-10T04:19:05;21.70;99.90
23544;DHT22;11950;51.230;4.012;2023-06-10T04:21:32;21.70;99.90
23544;DHT22;11950;51.230;4.012;2023-06-10T04:24:10;21.70;99.90
23544;DHT22;11950;51.230;4.012;2023-06-10T04:26:36;21.70;99.90
23544;DHT22;11950;51.230;4.012;2023-06-10T04:29:04;21.70;99.90
23544;DHT22;11950;51.230;4.012;2023-06-10T04:31:30;21.80;99.90
23544;DHT22;11950;51.230;4.012;2023-06-10T04:33:58;21.80;99.90
23544;DHT22;11950;51.230;4.012;2023-06-10T04:36:25;21.90;99.90
23544;DHT22;11950;51.230;4.012;2023-06-10T04:38:51;21.90;99.90
23544;DHT22;11950;51.230;4.012;2023-06-10T04:41:18;21.90;99.90
23544;DHT22;11950;51.230;4.012;2023-06-10T04:43:45;21.90;99.90
23544;DHT22;11950;51.230;4.012;2023-06-10T04:46:12;22.00;99.90
23544;DHT22;11950;51.230;4.012;2023-06-10T04:48:39;22.00;99.90
23544;DHT22;11950;51.230;4.012;2023-06-10T04:51:06;22.00;99.90
23544;DHT22;11950;51.230;4.012;2023-06-10T04:53:32;22.00;99.90
23544;DHT22;11950;51.230;4.012;2023-06-10T04:55:58;22.10;99.90
23544;DHT22;11950;51.230;4.012;2023-06-10T04:58:24;22.10;99.90
23544;DHT22;11950;51.230;4.012;2023-06-10T05:00:51;22.10;99.90
23544;DHT22;11950;51.230;4.012;2023-06-10T05:03:17;22.10;99.90
23544;DHT22;11950;51.230;4.012;2023-06-10T05:05:43;22.10;99.90
23544;DHT22;11950;51.230;4.012;2023-06-10T05:08:09;22.20;99.90
23544;DHT22;11950;51.230;4.012;2023-06-10T05:10:36;22.20;99.90
23544;DHT22;11950;51.230;4.012;2023-06-10T05:13:02;22.20;99.90
23544;DHT22;11950;51.230;4.012;2023-06-10T05:15:29;22.20;99.90
23544;DHT22;11950;51.230;4.012;2023-06-10T05:17:57;22.30;99.90
23544;DHT22;11950;51.230;4.012;2023-06-10T05:20:25;22.30;99.90
23544;DHT22;11950;51.230;4.012;2023-06-10T05:22:51;22.30;99.90
23544;DHT22;11950;51.230;4.012;2023-06-10T05:25:18;22.40;99.90
23544;DHT22;11950;51.230;4.012;2023-06-10T05:27:44;22.40;99.90
23544;DHT22;11950;51.230;4.012;2023-06-10T05:30:10;22.40;99.90
23544;DHT22;11950;51.230;4.012;2023-06-10T05:32:37;22.50;99.90
23544;DHT22;11950;51.230;4.012;2023-06-10T05:35:03;22.50;99.90
23544;DHT22;11950;51.230;4.012;2023-06-10T05:37:30;22.60;99.90
23544;DHT22;11950;51.230;4.012;2023-06-10T05:39:56;22.60;99.90
23544;DHT22;11950;51.230;4.012;2023-06-10T05:42:23;22.60;99.90
23544;DHT22;11950;51.230;4.012;2023-06-10T05:44:49;22.70;99.90
23544;DHT22;11950;51.230;4.012;2023-06-10T05:47:15;22.70;99.90
23544;DHT22;11950;51.230;4.012;2023-06-10T05:49:42;22.70;99.90
23544;DHT22;11950;51.230;4.012;2023-06-10T05:52:08;22.80;99.90
23544;DHT22;11950;51.230;4.012;2023-06-10T05:54:34;22.80;99.90
23544;DHT22;11950;51.230;4.012;2023-06-10T05:57:00;22.90;99.90
23544;DHT22;11950;51.230;4.012;2023-06-10T05:59:27;22.90;99.90
23544;DHT22;11950;51.230;4.012;2023-06-10T06:01:53;23.00;99.90
23544;DHT22;11950;51.230;4.012;2023-06-10T06:04:21;23.00;99.90
23544;DHT22;11950;51.230;4.012;2023-06-10T06:06:48;23.00;99.90
23544;DHT22;11950;51.230;4.012;2023-06-10T06:09:14;23.10;99.90
23544;DHT22;11950;51.230;4.012;2023-06-10T06:11:41;23.10;99.90
23544;DHT22;11950;51.230;4.012;2023-06-10T06:14:07;23.20;99.90
23544;DHT22;11950;51.230;4.012;2023-06-10T06:16:33;23.30;99.90
23544;DHT22;11950;51.230;4.012;2023-06-10T06:19:00;23.40;99.90
23544;DHT22;11950;51.230;4.012;2023-06-10T06:21:26;23.40;99.90
23544;DHT22;11950;51.230;4.012;2023-06-10T06:23:52;23.50;99.90
23544;DHT22;11950;51.230;4.012;2023-06-10T06:26:18;23.60;99.90
23544;DHT22;11950;51.230;4.012;2023-06-10T06:28:45;23.70;99.90
23544;DHT22;11950;51.230;4.012;2023-06-10T06:31:11;23.90;99.90
23544;DHT22;11950;51.230;4.012;2023-06-10T06:33:37;24.00;99.90
23544;DHT22;11950;51.230;4.012;2023-06-10T06:36:03;24.20;99.90
23544;DHT22;11950;51.230;4.012;2023-06-10T06:38:30;24.30;99.90
23544;DHT22;11950;51.230;4.012;2023-06-10T06:40:56;24.40;99.90
23544;DHT22;11950;51.230;4.012;2023-06-10T06:43:22;24.60;99.90
23544;DHT22;11950;51.230;4.012;2023-06-10T06:46:17;24.70;99.90
23544;DHT22;11950;51.230;4.012;2023-06-10T06:48:44;24.90;99.90
23544;DHT22;11950;51.230;4.012;2023-06-10T06:51:10;25.00;99.90
23544;DHT22;11950;51.230;4.012;2023-06-10T06:53:36;25.10;99.90
23544;DHT22;11950;51.230;4.012;2023-06-10T06:56:03;25.10;99.90
23544;DHT22;11950;51.230;4.012;2023-06-10T06:58:29;25.20;99.90
23544;DHT22;11950;51.230;4.012;2023-06-10T07:00:55;25.20;99.90
23544;DHT22;11950;51.230;4.012;2023-06-10T07:03:22;25.20;99.90
23544;DHT22;11950;51.230;4.012;2023-06-10T07:05:49;25.20;99.90
23544;DHT22;11950;51.230;4.012;2023-06-10T07:08:15;25.20;99.90
23544;DHT22;11950;51.230;4.012;2023-06-10T07:10:42;25.20;99.90
23544;DHT22;11950;51.230;4.012;2023-06-10T07:13:08;25.20;99.90
23544;DHT22;11950;51.230;4.012;2023-06-10T07:15:34;25.20;99.90
23544;DHT22;11950;51.230;4.012;2023-06-10T07:18:01;25.20;99.90
23544;DHT22;11950;51.230;4.012;2023-06-10T07:20:27;25.20;99.90
23544;DHT22;11950;51.230;4.012;2023-06-10T07:22:53;25.20;99.90
23544;DHT22;11950;51.230;4.012;2023-06-10T07:25:19;25.20;99.90
23544;DHT22;11950;51.230;4.012;2023-06-10T07:27:45;25.20;99.90
23544;DHT22;11950;51.230;4.012;2023-06-10T07:30:12;25.30;99.90
23544;DHT22;11950;51.230;4.012;2023-06-10T07:32:38;25.40;99.90
23544;DHT22;11950;51.230;4.012;2023-06-10T07:35:09;25.60;99.90
23544;DHT22;11950;51.230;4.012;2023-06-10T07:37:37;25.70;99.90
23544;DHT22;11950;51.230;4.012;2023-06-10T07:40:04;25.80;99.90
23544;DHT22;11950;51.230;4.012;2023-06-10T07:42:33;25.90;99.90
23544;DHT22;11950;51.230;4.012;2023-06-10T07:45:00;26.00;99.90
23544;DHT22;11950;51.230;4.012;2023-06-10T07:47:26;26.10;99.90
23544;DHT22;11950;51.230;4.012;2023-06-10T07:49:52;26.10;99.90
23544;DHT22;11950;51.230;4.012;2023-06-10T07:52:19;26.30;99.90
23544;DHT22;11950;51.230;4.012;2023-06-10T07:54:45;26.40;99.90
23544;DHT22;11950;51.230;4.012;2023-06-10T07:57:11;26.50;99.90
23544;DHT22;11950;51.230;4.012;2023-06-10T07:59:38;26.60;99.90
23544;DHT22;11950;51.230;4.012;2023-06-10T08:02:05;26.70;99.90
23544;DHT22;11950;51.230;4.012;2023-06-10T08:04:31;26.90;99.90
23544;DHT22;11950;51.230;4.012;2023-06-10T08:06:57;27.00;99.90
23544;DHT22;11950;51.230;4.012;2023-06-10T08:09:24;27.00;99.90
23544;DHT22;11950;51.230;4.012;2023-06-10T08:11:50;27.20;99.90
23544;DHT22;11950;51.230;4.012;2023-06-10T08:14:16;27.30;99.90
23544;DHT22;11950;51.230;4.012;2023-06-10T08:16:43;27.50;99.90
23544;DHT22;11950;51.230;4.012;2023-06-10T08:19:09;27.60;99.90
23544;DHT22;11950;51.230;4.012;2023-06-10T08:21:36;27.70;99.90
23544;DHT22;11950;51.230;4.012;2023-06-10T08:24:06;27.90;99.90
23544;DHT22;11950;51.230;4.012;2023-06-10T08:26:33;28.00;99.90
23544;DHT22;11950;51.230;4.012;2023-06-10T08:28:59;28.10;99.90
23544;DHT22;11950;51.230;4.012;2023-06-10T08:31:25;28.20;99.90
23544;DHT22;11950;51.230;4.012;2023-06-10T08:33:51;28.20;99.90
23544;DHT22;11950;51.230;4.012;2023-06-10T08:36:18;28.30;99.90
23544;DHT22;11950;51.230;4.012;2023-06-10T08:38:44;28.30;99.90
23544;DHT22;11950;51.230;4.012;2023-06-10T08:41:12;28.30;99.90
23544;DHT22;11950;51.230;4.012;2023-06-10T08:43:59;28.30;99.90
23544;DHT22;11950;51.230;4.012;2023-06-10T08:46:30;28.40;99.90
23544;DHT22;11950;51.230;4.012;2023-06-10T08:49:03;28.50;99.90
23544;DHT22;11950;51.230;4.012;2023-06-10T08:51:30;28.60;99.90
23544;DHT22;11950;51.230;4.012;2023-06-10T08:54:04;28.70;99.90
23544;DHT22;11950;51.230;4.012;2023-06-10T08:56:34;28.80;99.10
23544;DHT22;11950;51.230;4.012;2023-06-10T08:59:02;28.90;98.30
23544;DHT22;11950;51.230;4.012;2023-06-10T09:01:29;28.90;98.20
23544;DHT22;11950;51.230;4.012;2023-06-10T09:03:56;29.00;98.80
23544;DHT22;11950;51.230;4.012;2023-06-10T09:06:23;29.10;98.50
23544;DHT22;11950;51.230;4.012;2023-06-10T09:08:50;29.20;97.60
23544;DHT22;11950;51.230;4.012;2023-06-10T09:11:16;29.30;97.50
23544;DHT22;11950;51.230;4.012;2023-06-10T09:13:43;29.40;98.30
23544;DHT22;11950;51.230;4.012;2023-06-10T09:16:10;29.40;97.50
23544;DHT22;11950;51.230;4.012;2023-06-10T09:18:37;29.50;97.70
23544;DHT22;11950;51.230;4.012;2023-06-10T09:21:04;29.60;98.40
23544;DHT22;11950;51.230;4.012;2023-06-10T09:23:30;29.70;97.90
23544;DHT22;11950;51.230;4.012;2023-06-10T09:25:57;29.70;97.40
23544;DHT22;11950;51.230;4.012;2023-06-10T09:28:24;29.80;96.70
23544;DHT22;11950;51.230;4.012;2023-06-10T09:31:04;29.90;96.10
23544;DHT22;11950;51.230;4.012;2023-06-10T09:33:38;30.00;95.70
23544;DHT22;11950;51.230;4.012;2023-06-10T09:36:05;30.10;96.40
23544;DHT22;11950;51.230;4.012;2023-06-10T09:38:34;30.10;95.60
23544;DHT22;11950;51.230;4.012;2023-06-10T09:41:00;30.20;95.40
23544;DHT22;11950;51.230;4.012;2023-06-10T09:43:42;30.20;95.00
23544;DHT22;11950;51.230;4.012;2023-06-10T09:46:19;30.20;95.10
23544;DHT22;11950;51.230;4.012;2023-06-10T09:48:47;30.30;95.00
23544;DHT22;11950;51.230;4.012;2023-06-10T09:51:14;30.30;94.40
23544;DHT22;11950;51.230;4.012;2023-06-10T09:53:41;30.30;95.10
23544;DHT22;11950;51.230;4.012;2023-06-10T09:56:07;30.30;95.10
23544;DHT22;11950;51.230;4.012;2023-06-10T09:58:38;30.40;94.00
23544;DHT22;11950;51.230;4.012;2023-06-10T10:01:05;30.40;94.70
23544;DHT22;11950;51.230;4.012;2023-06-10T10:03:32;30.40;93.40
23544;DHT22;11950;51.230;4.012;2023-06-10T10:05:59;30.40;93.20
23544;DHT22;11950;51.230;4.012;2023-06-10T10:08:28;30.40;92.90
23544;DHT22;11950;51.230;4.012;2023-06-10T10:10:56;30.50;94.00
23544;DHT22;11950;51.230;4.012;2023-06-10T10:13:24;30.50;93.10
23544;DHT22;11950;51.230;4.012;2023-06-10T10:15:50;30.60;93.20
23544;DHT22;11950;51.230;4.012;2023-06-10T10:18:20;30.70;93.20
23544;DHT22;11950;51.230;4.012;2023-06-10T10:20:54;30.80;92.50
23544;DHT22;11950;51.230;4.012;2023-06-10T10:23:26;30.80;92.80
23544;DHT22;11950;51.230;4.012;2023-06-10T10:25:57;30.80;92.80
23544;DHT22;11950;51.230;4.012;2023-06-10T10:28:33;30.90;93.70
23544;DHT22;11950;51.230;4.012;2023-06-10T10:31:07;30.90;92.70
23544;DHT22;11950;51.230;4.012;2023-06-10T10:33:39;31.00;92.00
23544;DHT22;11950;51.230;4.012;2023-06-10T10:36:07;31.10;92.50
23544;DHT22;11950;51.230;4.012;2023-06-10T10:38:34;31.10;91.90
23544;DHT22;11950;51.230;4.012;2023-06-10T10:41:02;31.10;91.50
23544;DHT22;11950;51.230;4.012;2023-06-10T10:43:29;31.10;91.10
23544;DHT22;11950;51.230;4.012;2023-06-10T10:46:00;31.00;90.00
23544;DHT22;11950;51.230;4.012;2023-06-10T10:48:27;31.00;89.70
23544;DHT22;11950;51.230;4.012;2023-06-10T10:50:58;30.90;89.40
23544;DHT22;11950;51.230;4.012;2023-06-10T10:53:25;31.00;90.10
23544;DHT22;11950;51.230;4.012;2023-06-10T10:56:07;31.00;91.40
23544;DHT22;11950;51.230;4.012;2023-06-10T10:58:34;31.10;91.10
23544;DHT22;11950;51.230;4.012;2023-06-10T11:01:10;31.20;90.50
23544;DHT22;11950;51.230;4.012;2023-06-10T11:03:45;31.20;89.60
23544;DHT22;11950;51.230;4.012;2023-06-10T11:06:17;31.20;89.50
23544;DHT22;11950;51.230;4.012;2023-06-10T11:11:20;31.20;87.70
23544;DHT22;11950;51.230;4.012;2023-06-10T11:16:31;31.30;86.90
23544;DHT22;11950;51.230;4.012;2023-06-10T11:19:04;31.30;86.80
23544;DHT22;11950;51.230;4.012;2023-06-10T11:21:30;31.40;87.70
23544;DHT22;11950;51.230;4.012;2023-06-10T11:23:58;31.40;83.60
23544;DHT22;11950;51.230;4.012;2023-06-10T11:31:31;31.40;82.50
23544;DHT22;11950;51.230;4.012;2023-06-10T11:34:05;31.40;81.60
23544;DHT22;11950;51.230;4.012;2023-06-10T11:36:37;31.50;84.70
23544;DHT22;11950;51.230;4.012;2023-06-10T11:39:05;31.50;85.00
23544;DHT22;11950;51.230;4.012;2023-06-10T11:41:32;31.50;82.30
23544;DHT22;11950;51.230;4.012;2023-06-10T11:44:13;31.50;81.50
23544;DHT22;11950;51.230;4.012;2023-06-10T11:46:40;31.60;82.50
23544;DHT22;11950;51.230;4.012;2023-06-10T11:49:08;31.60;81.80
23544;DHT22;11950;51.230;4.012;2023-06-10T11:51:37;31.70;80.70
23544;DHT22;11950;51.230;4.012;2023-06-10T11:54:05;31.70;81.50
23544;DHT22;11950;51.230;4.012;2023-06-10T11:56:32;31.70;82.30
23544;DHT22;11950;51.230;4.012;2023-06-10T11:59:06;31.70;82.40
23544;DHT22;11950;51.230;4.012;2023-06-10T12:01:36;31.80;82.30
23544;DHT22;11950;51.230;4.012;2023-06-10T12:04:08;31.80;80.00
23544;DHT22;11950;51.230;4.012;2023-06-10T12:06:49;31.80;79.30
23544;DHT22;11950;51.230;4.012;2023-06-10T12:12:07;31.80;79.60
23544;DHT22;11950;51.230;4.012;2023-06-10T12:19:58;32.00;80.90
23544;DHT22;11950;51.230;4.012;2023-06-10T12:22:24;32.00;78.80
23544;DHT22;11950;51.230;4.012;2023-06-10T12:24:58;31.90;78.20
23544;DHT22;11950;51.230;4.012;2023-06-10T12:27:32;31.80;78.30
23544;DHT22;11950;51.230;4.012;2023-06-10T12:30:02;31.80;78.70
23544;DHT22;11950;51.230;4.012;2023-06-10T12:32:43;31.70;77.00
23544;DHT22;11950;51.230;4.012;2023-06-10T12:35:11;31.70;78.10
23544;DHT22;11950;51.230;4.012;2023-06-10T12:37:41;31.70;78.00
23544;DHT22;11950;51.230;4.012;2023-06-10T12:40:08;31.80;78.70
23544;DHT22;11950;51.230;4.012;2023-06-10T12:42:38;31.80;77.80
23544;DHT22;11950;51.230;4.012;2023-06-10T12:45:05;31.80;77.70
23544;DHT22;11950;51.230;4.012;2023-06-10T12:47:36;31.70;72.80
23544;DHT22;11950;51.230;4.012;2023-06-10T12:50:04;31.70;76.50
23544;DHT22;11950;51.230;4.012;2023-06-10T12:52:31;31.70;74.40
23544;DHT22;11950;51.230;4.012;2023-06-10T12:54:58;31.60;75.30
23544;DHT22;11950;51.230;4.012;2023-06-10T12:57:25;31.50;74.60
23544;DHT22;11950;51.230;4.012;2023-06-10T12:59:51;31.50;75.00
23544;DHT22;11950;51.230;4.012;2023-06-10T13:02:26;31.50;75.10
23544;DHT22;11950;51.230;4.012;2023-06-10T13:04:52;31.60;76.10
23544;DHT22;11950;51.230;4.012;2023-06-10T13:07:19;31.70;78.10
23544;DHT22;11950;51.230;4.012;2023-06-10T13:09:46;31.80;78.10
23544;DHT22;11950;51.230;4.012;2023-06-10T13:12:15;31.80;76.30
23544;DHT22;11950;51.230;4.012;2023-06-10T13:14:41;31.80;75.60
23544;DHT22;11950;51.230;4.012;2023-06-10T13:17:07;31.80;76.10
23544;DHT22;11950;51.230;4.012;2023-06-10T13:19:33;31.70;76.30
23544;DHT22;11950;51.230;4.012;2023-06-10T13:22:00;31.80;78.50
23544;DHT22;11950;51.230;4.012;2023-06-10T13:24:26;31.70;76.10
23544;DHT22;11950;51.230;4.012;2023-06-10T13:26:53;31.60;74.50
23544;DHT22;11950;51.230;4.012;2023-06-10T13:29:20;31.60;76.00
23544;DHT22;11950;51.230;4.012;2023-06-10T13:31:47;31.60;76.20
23544;DHT22;11950;51.230;4.012;2023-06-10T13:34:13;31.70;78.60
23544;DHT22;11950;51.230;4.012;2023-06-10T13:36:39;31.80;77.70
23544;DHT22;11950;51.230;4.012;2023-06-10T13:39:05;31.90;76.90
23544;DHT22;11950;51.230;4.012;2023-06-10T13:41:32;31.90;74.90
23544;DHT22;11950;51.230;4.012;2023-06-10T13:43:58;31.90;72.60
23544;DHT22;11950;51.230;4.012;2023-06-10T13:46:24;31.90;73.30
23544;DHT22;11950;51.230;4.012;2023-06-10T13:48:52;32.00;72.10
23544;DHT22;11950;51.230;4.012;2023-06-10T13:51:18;32.00;72.60
23544;DHT22;11950;51.230;4.012;2023-06-10T13:53:44;32.00;73.90
23544;DHT22;11950;51.230;4.012;2023-06-10T13:56:11;32.00;73.80
23544;DHT22;11950;51.230;4.012;2023-06-10T13:58:38;32.00;72.80
23544;DHT22;11950;51.230;4.012;2023-06-10T14:01:05;32.00;74.60
23544;DHT22;11950;51.230;4.012;2023-06-10T14:03:32;32.00;74.30
23544;DHT22;11950;51.230;4.012;2023-06-10T14:05:58;32.10;73.80
23544;DHT22;11950;51.230;4.012;2023-06-10T14:08:24;32.10;70.60
23544;DHT22;11950;51.230;4.012;2023-06-10T14:10:50;32.10;72.90
23544;DHT22;11950;51.230;4.012;2023-06-10T14:13:18;32.10;71.10
23544;DHT22;11950;51.230;4.012;2023-06-10T14:15:44;31.90;71.40
23544;DHT22;11950;51.230;4.012;2023-06-10T14:18:11;31.80;72.70
23544;DHT22;11950;51.230;4.012;2023-06-10T14:20:37;31.70;71.00
23544;DHT22;11950;51.230;4.012;2023-06-10T14:23:03;31.70;72.60
23544;DHT22;11950;51.230;4.012;2023-06-10T14:25:30;31.70;73.80
23544;DHT22;11950;51.230;4.012;2023-06-10T14:27:56;31.70;72.50
23544;DHT22;11950;51.230;4.012;2023-06-10T14:30:23;31.70;71.80
23544;DHT22;11950;51.230;4.012;2023-06-10T14:32:49;31.80;72.10
23544;DHT22;11950;51.230;4.012;2023-06-10T14:35:16;31.70;72.00
23544;DHT22;11950;51.230;4.012;2023-06-10T14:37:42;31.80;71.10
23544;DHT22;11950;51.230;4.012;2023-06-10T14:40:08;31.80;71.70
23544;DHT22;11950;51.230;4.012;2023-06-10T14:42:35;31.80;71.50
23544;DHT22;11950;51.230;4.012;2023-06-10T14:45:01;31.80;74.50
23544;DHT22;11950;51.230;4.012;2023-06-10T14:47:27;31.90;73.40
23544;DHT22;11950;51.230;4.012;2023-06-10T14:49:54;31.90;74.00
23544;DHT22;11950;51.230;4.012;2023-06-10T14:52:20;32.00;73.40
23544;DHT22;11950;51.230;4.012;2023-06-10T14:54:46;31.90;70.20
23544;DHT22;11950;51.230;4.012;2023-06-10T14:57:12;31.90;71.50
23544;DHT22;11950;51.230;4.012;2023-06-10T14:59:39;31.90;72.30
23544;DHT22;11950;51.230;4.012;2023-06-10T15:02:05;31.90;74.20
23544;DHT22;11950;51.230;4.012;2023-06-10T15:04:32;31.80;72.50
23544;DHT22;11950;51.230;4.012;2023-06-10T15:06:59;31.70;74.00
23544;DHT22;11950;51.230;4.012;2023-06-10T15:09:25;31.70;75.50
23544;DHT22;11950;51.230;4.012;2023-06-10T15:11:51;31.70;76.90
23544;DHT22;11950;51.230;4.012;2023-06-10T15:14:18;31.70;75.60
23544;DHT22;11950;51.230;4.012;2023-06-10T15:16:44;31.70;72.00
23544;DHT22;11950;51.230;4.012;2023-06-10T15:19:10;31.80;72.60
23544;DHT22;11950;51.230;4.012;2023-06-10T15:21:36;31.80;71.30
23544;DHT22;11950;51.230;4.012;2023-06-10T15:24:03;31.70;71.20
23544;DHT22;11950;51.230;4.012;2023-06-10T15:26:29;31.80;71.80
23544;DHT22;11950;51.230;4.012;2023-06-10T15:28:56;31.80;70.50
23544;DHT22;11950;51.230;4.012;2023-06-10T15:31:22;31.80;71.50
23544;DHT22;11950;51.230;4.012;2023-06-10T15:33:48;31.80;71.80
23544;DHT22;11950;51.230;4.012;2023-06-10T15:36:14;31.80;73.20
23544;DHT22;11950;51.230;4.012;2023-06-10T15:38:41;31.80;74.00
23544;DHT22;11950;51.230;4.012;2023-06-10T15:41:07;31.80;74.40
23544;DHT22;11950;51.230;4.012;2023-06-10T15:43:33;31.80;73.40
23544;DHT22;11950;51.230;4.012;2023-06-10T15:45:59;31.80;76.40
23544;DHT22;11950;51.230;4.012;2023-06-10T15:48:26;31.80;71.70
23544;DHT22;11950;51.230;4.012;2023-06-10T15:50:52;31.80;70.60
23544;DHT22;11950;51.230;4.012;2023-06-10T15:53:18;31.80;70.00
23544;DHT22;11950;51.230;4.012;2023-06-10T15:55:44;31.80;71.80